Terminal Aerodrome Forecast
Issued by NWS Dodge City, KS

Home | Current Version | Previous Version | Graphics & Text | Print | Product List | Glossary Off
Versions: 1 2 3 4 5 6 7 8 9 10 11 12 13 14 15 16 17 18 19 20 21 22 23 24 25

000
FTUS43 KDDC 202150 AAD
TAFDDC
TAF AMD
KDDC 202150Z 2022/2118 12011KT P6SM -TSRA OVC080CB
     FM210300 11010KT 6SM -SHRA OVC020
     FM210600 11010KT 5SM -SHRA OVC006
     FM211200 10010KT 3SM -SHRA OVC002=

USA.gov is the U.S. government's official web portal to all federal, state and local government web resources and services.